Tiempo atmosférico en la estación meteorológica de Pontevedra, Pontevedra (108 m.)



Fecha
DESCASC
Temp. máxima en grados centígrados (hora)
DESCASC
Temp. mínima en grados centígrados (hora)
DESCASC
Temp. media en grados centígrados
DESCASC
Racha de viento máxima en m/sg (hora)
DESCASC
Velocidad máxima media en intervalos de 10 minutos(hora)
DESCASC
Precipitaciones diarias en mm
DESCASC
Precipitaciones de 00:00 a 06:00 en mm
DESCASC
Precipitaciones de 06:00 a 12:00 en mm
DESCASC
Precipitaciones de 12:00 a 18:00 en mm
DESCASC
Precipitaciones de 18:00 a 24:00 en mm
DESCASC
11-12-2019 12.1 (13:00) 6.4 (09:50) 9.3 10.28 (03:00) 5.28 (03:00) 16 15.2 0 0.6 0.2
08-12-2019 13.3 (14:50) 7.3 (00:00) 10.3 4.17 (23:20) 2.78 (23:10) 11.6 2.6 7.4 1.6 0
07-12-2019 11.7 (14:50) 6.4 (00:00) 9 4.72 (05:00) 3.61 (03:40) 2.8 0 0 0.2 2.6
06-12-2019 13.6 (15:50) 7 (00:00) 10.3 4.72 (09:10) 3.06 (03:40) 0 0 0 0 0
05-12-2019 15.3 (15:50) 6.2 (00:00) 10.8 8.61 (12:00) 4.17 (03:20) 0 0 0 0 0
04-12-2019 12.3 (16:50) 1.8 (05:50) 7.1 6.11 (03:40) 4.17 (07:50) 0 0 0 0 0
03-12-2019 12.2 (14:40) 3.1 (00:00) 7.6 5.83 (00:10) 3.89 (23:59) 0 0 0 0 0
02-12-2019 13.1 (13:00) 7.7 (00:00) 10.4 13.33 (15:00) 5.56 (15:50) 0 0 0 0 0
01-12-2019 13.9 (15:50) 8.5 (00:00) 11.2 13.89 (00:40) 6.39 (00:40) 11 10.8 0.2 0 0
30-11-2019 15.5 (00:00) 10.1 (00:00) 12.8 14.72 (04:40) 7.5 (05:30) 10.4 0 0 1 9.4
29-11-2019 16.9 (14:40) 10.8 (00:00) 13.8 10.83 (23:59) 5.83 (23:20) -- -- 0 0 0
28-11-2019 15.2 (17:10) 11.9 (07:00) 13.5 16.11 (16:00) 7.22 (16:00) -- -- -- -- --
27-11-2019 13.5 (15:50) 11.7 (00:00) 12.6 13.89 (16:40) 6.67 (16:40) -- -- -- -- --
26-11-2019 16.5 (12:10) 11.7 (00:00) 14.1 20 (17:10) 10 (17:10) 9.6 0 0.6 4.8 4.2
25-11-2019 15.4 (14:50) 12.5 (09:10) 13.9 13.33 (23:30) 6.11 (23:30) 0 0 0 0 0
24-11-2019 15.3 (22:00) 7.2 (00:00) 11.3 15.28 (17:40) 7.22 (17:20) 6.8 0 0 1 5.8
23-11-2019 13.7 (13:50) 7.3 (00:00) 10.5 10.28 (00:30) 5.83 (00:10) 2.6 2.4 0 0 0.2
22-11-2019 14.3 (09:20) 9.2 (00:00) 11.8 19.17 (20:40) 10 (20:40) 36.2 1.4 10.6 9.4 14.8
21-11-2019 13.5 (14:30) 6.6 (00:00) 10 8.33 (15:30) 3.61 (14:20) 12.4 10 2.4 0 0
20-11-2019 10 (17:10) 6.2 (07:20) 8.1 7.22 (13:50) 2.78 (14:10) 12.4 0 0 4 8.4
19-11-2019 9.6 (19:10) 5.2 (00:00) 7.4 5.28 (00:20) 3.61 (00:20) 3 0 0 2.2 0.8
18-11-2019 13.3 (15:40) 6.1 (00:00) 9.7 5.28 (14:30) 3.33 (16:00) 0.4 0 0.4 0 0
17-11-2019 13 (13:20) 8.5 (00:00) 10.8 7.5 (15:30) 4.17 (15:20) 2.6 0 1.8 0.8 0
16-11-2019 11 (16:00) 3.3 (00:00) 7.1 5.83 (21:10) 2.78 (19:20) 0 0 0 0 0
15-11-2019 10.8 (14:10) 3.9 (00:00) 7.4 11.11 (14:20) 6.39 (15:30) 3 0 0.4 1.4 1.2

Gráficas

Temp. máximas Temp. mínimas Temp. medias Precipitaciones Rachas de viento máximas Velocidades máximas media en intervalos de 10 minutos

Datos horarios

Fecha y hora oficial Temperatura (ºC) Velocidad del viento (km/h) Dirección del viento Racha (km/h) Dirección de racha Precipitación (mm) Presión (hPa) Tendencia (hPa) Humedad (%)
2019-12-14 23:00:00 13.8 17 Sur 40 Sur 0 998 -1.3 87
2019-12-14 22:00:00 13.5 17 Sur 49 Sur 0 998.6 -0.9 86
2019-12-14 21:00:00 13.6 19 Sur 50 Sur 0 999.1 -0.8 88
2019-12-14 20:00:00 13.3 19 Sur 41 Sur 0 999.3 -1.2 92
2019-12-14 19:00:00 13.6 19 Sur 45 Sur 0 999.5 -1.1 90
2019-12-14 18:00:00 13.4 19 Sur 41 Sudeste 0 999.9 -1 90
2019-12-14 17:00:00 13.4 17 Sur 34 Sur 0 1000.5 -1.2 90
2019-12-14 16:00:00 13.9 13 Sur 36 Sur 0 1000.6 -1.7 88
2019-12-14 15:00:00 14.2 14 Sur 32 Sur 0 1000.9 -2.5 87
2019-12-14 14:00:00 13.8 11 Sur 33 Sur 0 1001.7 -1.7 90
2019-12-14 13:00:00 13.1 16 Sur 30 Sudeste 0 1002.3 -0.5 92
2019-12-14 12:00:00 12 6 Sudoeste 34 Sudoeste 0.2 1003.4 0.7 96
2019-12-14 11:00:00 12 16 Sudoeste 50 Sudoeste 0.6 1003.4 0.5 98
2019-12-14 10:00:00 12 14 Sur 29 Sudeste 0.4 1002.8 -0.3 97
2019-12-14 09:00:00 12.6 12 Sur 30 Sur 0 1002.7 -0.5 92
2019-12-14 08:00:00 12.2 5 Sur 19 Sur 0 1002.9 -0.8 93
2019-12-14 07:00:00 12.6 10 Sur 31 Sudoeste 0 1003.1 -0.8 94
2019-12-14 06:00:00 12.6 12 Sur 39 Sudoeste 0.6 1003.2 -0.9 95
2019-12-14 05:00:00 13 19 Sur 46 Sudoeste 0.2 1003.7 -0.6 92
2019-12-14 04:00:00 12.8 14 Sur 42 Sudoeste 0.6 1003.9 -0.9 95
2019-12-14 03:00:00 13 17 Sur 39 Sudoeste 0 1004.1 -0.9 95
2019-12-14 02:00:00 12.7 14 Sur 32 Sur 0 1004.3 -0.8 96
2019-12-14 01:00:00 12.5 15 Sudoeste 40 Sur 0.6 1004.8 -0.5 97
2019-12-14 00:00:00 12.8 20 Sur 42 Sudoeste 0 1005 -0.6 93
2019-12-13 23:00:00 12.2 8 Sudoeste 35 Sudoeste 0.2 1005.1 -0.7 96
2019-12-13 22:00:00 12 9 Sur 19 Sur 0 1005.3 -0.4 97
2019-12-13 21:00:00 11.9 7 Sudoeste 17 Sudoeste 0 1005.6 0.1 99
2019-12-13 20:00:00 11.8 7 Sur 34 Sudoeste 0.2 1005.8 0.2 99
2019-12-13 19:00:00 12.5 14 Sudoeste 38 Sudoeste 0.2 1005.7 0.6 96
2019-12-13 18:00:00 13.1 17 Sudoeste 36 Sudoeste 0 1005.5 0.1 99
2019-12-13 17:00:00 13 17 Sudoeste 32 Sudoeste 0.2 1005.6 0.1 100
2019-12-13 16:00:00 12.7 10 Sudoeste 26 Sudoeste 1 1005.1 -0.9 100
2019-12-13 15:00:00 12.7 8 Sudoeste 28 Sudoeste 1 1005.4 -0.9 100
2019-12-13 14:00:00 13 12 Sudoeste 34 Sudoeste 0.6 1005.5 -0.4 100
2019-12-13 13:00:00 13 11 Sudoeste 30 Sudoeste 1 1006 0.7 100
2019-12-13 12:00:00 13 9 Sudoeste 33 Sudoeste 1 1006.3 1.2 100
2019-12-13 11:00:00 12.9 8 Sur 26 Sudoeste 0.4 1005.9 1.2 100
2019-12-13 10:00:00 12.9 14 Sudoeste 26 Sudoeste 0 1005.3 1 100
2019-12-13 09:00:00 12.9 13 Sudoeste 27 Sudoeste 0.6 1005.1 1.3 100
2019-12-13 08:00:00 12.9 12 Sudoeste 30 Sudoeste 0.4 1004.7 1 100
2019-12-13 07:00:00 12.9 15 Sudoeste 30 Sudoeste 0.2 1004.3 0.3 100
2019-12-13 06:00:00 12.8 13 Sudoeste 28 Sudoeste 1.2 1003.8 0.4 100
2019-12-13 05:00:00 12.7 15 Sudoeste 30 Sur 2.2 1003.7 -0.1 100
2019-12-13 04:00:00 12.7 14 Sudoeste 28 Sudoeste 0.6 1004 0 100
2019-12-13 03:00:00 12.7 14 Sudoeste 35 Sudoeste 0.8 1003.4 -0.1 100
2019-12-13 02:00:00 12.9 15 Sudoeste 35 Sudoeste 0.6 1003.8 0.5 100
2019-12-13 01:00:00 13.1 15 Sudoeste 28 Sudoeste 2 1004 1.2 100
2019-12-13 00:00:00 13 15 Sudoeste 36 Sur 1.6 1003.5 0.5 100
2019-12-12 23:00:00 13 15 Sudoeste 35 Sudoeste 3.4 1003.3 0.7 100
2019-12-12 22:00:00 13 19 Sudoeste 35 Sudoeste 1.8 1002.8 0.5 100
2019-12-12 21:00:00 13.2 17 Sudoeste 41 Sudoeste 1.2 1003 1.3 100
2019-12-12 20:00:00 13.3 21 Sudoeste 40 Sudoeste 2 1002.6 0.8 100
2019-12-12 19:00:00 13.2 14 Sudoeste 33 Sudoeste 5.2 1002.3 0.8 100
2019-12-12 18:00:00 13.1 17 Sudoeste 36 Oeste 3.4 1001.7 0 100
2019-12-12 17:00:00 13 18 Sudoeste 45 Sudoeste 3.6 1001.8 -0.6 100
2019-12-12 16:00:00 12.9 20 Sudoeste 41 Sudoeste 4.8 1001.5 -1.8 100
2019-12-12 15:00:00 12.5 26 Sudoeste 46 Sudoeste 8.6 1001.7 -2.8 100
2019-12-12 14:00:00 12.3 26 Sudoeste 50 Sudoeste 9.4 1002.4 -2.7 100
2019-12-12 13:00:00 11.7 24 Sudoeste 47 Sudoeste 9.2 1003.3 -2.4 100
2019-12-12 12:00:00 11.2 22 Sudoeste 51 Sudoeste 8 1004.5 -1.5 100
2019-12-12 11:00:00 11 18 Sudoeste 48 Sudoeste 5.4 1005.1 -0.9 99
2019-12-12 10:00:00 11.2 18 Sudoeste 43 Sur 6.6 1005.7 -1.4 99
2019-12-12 09:00:00 11.2 21 Sudoeste 49 Sudoeste 3.8 1006 -1.6 96
2019-12-12 08:00:00 10.9 16 Sudoeste 35 Sudoeste 1.6 1006 -2.1 98
2019-12-12 07:00:00 10.5 10 Sudoeste 42 Sur 1 1007.1 -2.3 94
2019-12-12 06:00:00 11.2 18 Sudoeste 51 Sudoeste 0.8 1007.6 -2.6 91
2019-12-12 05:00:00 11.2 19 Sudoeste 45 Sudoeste 0 1008.1 -3 91
2019-12-12 04:00:00 10.5 11 Sudoeste 27 Sudoeste 0.6 1009.4 -2.2 96
2019-12-12 03:00:00 10.8 13 Sudoeste 40 Sudoeste 1.6 1010.2 -1.9 96
2019-12-12 02:00:00 10.7 8 Sudoeste 28 Sudoeste 0 1011.1 -1.6 94
2019-12-12 01:00:00 10.8 8 Sur 21 Sudoeste 0.4 1011.6 -1.5 95
2019-12-12 00:00:00 10.6 9 Sur 27 Sudoeste 0 1012.1 -1.1 92
2019-12-11 23:00:00 10.5 9 Sur 19 Sudoeste 0 1012.7 -1 91
2019-12-11 22:00:00 10.6 8 Sur 17 Sur 0 1013.1 -0.7 91
2019-12-11 21:00:00 10.8 10 Sur 18 Sur 0 1013.2 -0.5 87
2019-12-11 20:00:00 10.3 8 Sur 15 Sur 0 1013.7 -0.2 89
2019-12-11 19:00:00 10.2 5 Sur 15 Sudeste 0.2 1013.8 -0.2 91
2019-12-11 18:00:00 10 5 Sur 14 Sur 0 1013.7 -0.4 93
2019-12-11 17:00:00 10.3 6 Sur 31 Sudoeste 0.2 1013.9 -0.6 92
2019-12-11 16:00:00 10.6 12 Sudoeste 24 Oeste 0.2 1014 -1 89
2019-12-11 15:00:00 10.7 7 Sur 21 Sudoeste 0.2 1014.1 -1.6 85
2019-12-11 14:00:00 10.8 6 Sudoeste 16 Sudoeste 0 1014.5 -0.9 88
2019-12-11 13:00:00 12.1 6 Sur 13 Sur 0 1015 0.2 79
2019-12-11 12:00:00 9.5 2 Noroeste 8 Norte 0 1015.7 1.7 96
2019-12-11 11:00:00 7.6 3 Este 5 Norte 0 1015.4 1.9 99
2019-12-11 10:00:00 6.5 2 Este 9 Norte 0 1014.8 2.2 97
2019-12-11 09:00:00 6.8 2 Sudeste 9 Noroeste 0 1014 2.2 96
2019-12-11 08:00:00 7.6 3 Norte 8 Norte 0 1013.5 2.2 96
2019-12-11 07:00:00 8.6 4 Norte 9 Norte 0 1012.6 1.9 96
2019-12-11 06:00:00 8.8 6 Noroeste 12 Norte 0 1011.8 2.1 96
2019-12-11 05:00:00 9.2 7 Noroeste 20 Noroeste 0 1011.3 2.7 96
2019-12-11 04:00:00 9.4 7 Norte 24 Norte 1 1010.7 1.8 96
2019-12-11 03:00:00 10 19 Noroeste 37 Noroeste 2.2 1009.7 0.7 98
2019-12-11 02:00:00 10.3 6 Norte 15 Sudeste 7.6 1008.6 -1.1 99
2019-12-11 01:00:00 10.3 4 Nordeste 12 Noroeste 4.4 1008.9 -1.3 99
2019-12-11 00:00:00 10 5 Nordeste 11 Norte 0.8 1009 -1.7 98
2019-12-10 23:00:00 10.1 6 Sudeste 19 Sudeste 0 1009.7 -1.3 98
2019-12-10 22:00:00 9.7 6 Norte 22 Sudeste 0.8 1010.2 -1.2 97
2019-12-10 21:00:00 10 2 Sudeste 10 Este 0.6 1010.7 -0.7 94
2019-12-10 20:00:00 10.4 3 Sudoeste 12 Este 0 1011 -0.5 88
2019-12-10 19:00:00 10.4 7 Sudeste 13 Sudeste 0 1011.4 -0.6 85
2019-12-10 18:00:00 10.6 7 Sudeste 12 Sudeste 0 1011.4 -1.4 82
2019-12-10 17:00:00 11.2 3 Sur 13 Sudoeste 0 1011.5 -1.6 81
2019-12-10 16:00:00 11.7 5 Sudoeste 16 Sudoeste 0 1012 -1.8 79
2019-12-10 15:00:00 11.7 9 Sudoeste 17 Sudoeste 0 1012.8 -2.1 77
2019-12-10 14:00:00 10.6 4 Sur 10 Sudeste 0 1013.1 -2.1 77
2019-12-10 13:00:00 9.3 3 Noroeste 5 Norte 0 1013.8 -1.1 86
2019-12-10 12:00:00 8.2 3 Sudoeste 6 Oeste 0 1014.9 -0.3 87
2019-12-10 11:00:00 6.9 3 Norte 14 Este 0 1015.2 -0.1 90
2019-12-10 10:00:00 5.2 6 Nordeste 9 Nordeste 0 1014.9 0 90
2019-12-10 09:00:00 5.1 5 Este 17 Nordeste 0 1015.2 0 88
2019-12-10 08:00:00 5.2 11 Nordeste 19 Este 0 1015.3 -0.2 90
2019-12-10 07:00:00 5.4 6 Nordeste 15 Nordeste 0 1014.9 -0.8 91
2019-12-10 06:00:00 5.7 11 Nordeste 17 Nordeste 0 1015.2 -0.9 88
2019-12-10 05:00:00 5.9 6 Nordeste 15 Este 0 1015.5 -1.7 88
2019-12-10 04:00:00 6.3 12 Nordeste 17 Nordeste 0 1015.7 -1.9 86
2019-12-10 03:00:00 6.5 8 Este 17 Nordeste 0 1016.1 -1.6 87
2019-12-10 02:00:00 5.9 6 Este 19 Este 0 1017.2 -1.1 92
2019-12-10 01:00:00 6.4 14 Este 19 Este 0 1017.6 -0.6 92
2019-12-10 00:00:00 6.9 12 Nordeste 18 Nordeste 0 1017.7 -0.6 90
2019-12-09 23:00:00 7.3 8 Este 16 Nordeste 0 1018.3 0 91
2019-12-09 22:00:00 7 11 Nordeste 17 Nordeste 0 1018.2 0.2 94
2019-12-09 21:00:00 7.9 12 Nordeste 16 Nordeste 0 1018.3 0.7 90
2019-12-09 20:00:00 8.8 8 Este 9 Este 0 1018.3 0.9 94
2019-12-09 19:00:00 9.5 0 Calma 6 Sudeste 0 1018 0.6 91
2019-12-09 18:00:00 10 5 Sudeste 9 Sur 0 1017.6 -0.3 89
2019-12-09 17:00:00 11.7 3 Nordeste 15 Noroeste 0 1017.4 -1 79
2019-12-09 16:00:00 12.8 5 Norte 13 Noroeste 0 1017.4 -1.8 77
2019-12-09 15:00:00 12.6 4 Nordeste 8 Nordeste 0 1017.9 -1.9 79
2019-12-09 14:00:00 12.3 3 Norte 7 Este 0 1018.4 -1 82
2019-12-09 13:00:00 11.2 2 Nordeste 9 Nordeste 0 1019.2 0.1 87
2019-12-09 12:00:00 9 4 Norte 8 Sur 0 1019.8 1.8 96
2019-12-09 11:00:00 7.9 4 Este 8 Este 0 1019.4 1.4 97
2019-12-09 10:00:00 6.3 3 Sur 17 Este 0 1019.1 1.2 95
2019-12-09 09:00:00 6.8 9 Este 17 Nordeste 0 1018 0.5 92
2019-12-09 08:00:00 6.9 8 Este 15 Este 0 1018 0.6 93
2019-12-09 07:00:00 6.2 3 Este 18 Este 0 1017.9 0.5 94
2019-12-09 06:00:00 6.6 10 Este 19 Este 0 1017.5 0.7 94
2019-12-09 05:00:00 6.6 13 Este 21 Este 0 1017.4 0.6 94
2019-12-09 04:00:00 6.1 9 Nordeste 16 Nordeste 0 1017.4 0.3 95
2019-12-09 03:00:00 6.2 7 Nordeste 17 Nordeste 0 1016.8 0.5 95
2019-12-09 02:00:00 6.6 11 Este 18 Este 0 1016.8 0.7 96
2019-12-09 01:00:00 6.4 8 Nordeste 16 Este 0 1017.1 1.2 96
2019-12-09 00:00:00 7.4 7 Nordeste 15 Este 0 1016.3 1.4 97
2019-12-08 23:00:00 7.9 9 Nordeste 13 Nordeste 0 1016.1 1.5 97
2019-12-08 22:00:00 8.6 6 Nordeste 12 Este 0 1015.9 2.3 95
2019-12-08 21:00:00 9.5 5 Nordeste 11 Norte 0 1014.9 2.2 94
2019-12-08 20:00:00 10.6 4 Noroeste 10 Norte 0 1014.6 2.3 93
2019-12-08 19:00:00 11.6 5 Norte 9 Norte 0 1013.6 1.9 94
2019-12-08 18:00:00 12.3 4 Norte 10 Oeste 0 1012.7 1.5 96
2019-12-08 17:00:00 13.1 5 Oeste 11 Sudoeste 0.2 1012.3 0.9 100
2019-12-08 16:00:00 13.3 4 Oeste 8 Sudoeste 0 1011.7 0 100
2019-12-08 15:00:00 13.3 2 Noroeste 5 Noroeste 0.2 1011.2 -0.8 100
2019-12-08 14:00:00 13.1 0 Calma 5 Sur 0.6 1011.4 -0.1 100
2019-12-08 13:00:00 12.7 0 Calma 6 Sudoeste 0.6 1011.7 1.1 100
2019-12-08 12:00:00 12.4 2 Sur 4 Sudoeste 1 1012 2.2 100
2019-12-08 11:00:00 12.1 3 Noroeste 5 Oeste 1 1011.5 1.6 100
2019-12-08 10:00:00 11.9 2 Sudeste 8 Nordeste 3 1010.6 1 100
2019-12-08 09:00:00 11.6 3 Norte 6 Noroeste 0.6 1009.8 0.1 100
2019-12-08 08:00:00 11.7 3 Norte 9 Norte 1 1009.9 -0.1 100
2019-12-08 07:00:00 11.5 5 Norte 7 Norte 0.8 1009.6 -0.7 100
2019-12-08 06:00:00 11.6 2 Nordeste 6 Norte 0.8 1009.7 -0.5 100
2019-12-08 05:00:00 11.6 0 Calma 6 Nordeste 0.4 1010 -0.4 100
2019-12-08 04:00:00 11.5 3 Norte 5 Norte 0 1010.3 -0.5 100
2019-12-08 03:00:00 11.5 3 Noroeste 8 Sudeste 0.4 1010.2 -0.6 100
2019-12-08 02:00:00 11.5 3 Oeste 6 Oeste 0.8 1010.4 -0.1 100
2019-12-08 01:00:00 11.5 2 Sudoeste 7 Oeste 0.2 1010.8 0.3 100
2019-12-08 00:00:00 11.5 0 Calma 4 Oeste 0.4 1010.8 0.4 99
2019-12-07 23:00:00 11.5 2 Noroeste 6 Norte 0.2 1010.5 0.2 99
2019-12-07 22:00:00 11.4 0 Calma 5 Norte 0.2 1010.5 0.5 99
2019-12-07 21:00:00 11.3 4 Norte 6 Noroeste 0.8 1010.4 0.3 99
2019-12-07 20:00:00 11.3 3 Noroeste 6 Noroeste 0.6 1010.3 0.4 99
2019-12-07 19:00:00 11.4 2 Norte 4 Nordeste 0.4 1010 0.5 98
2019-12-07 18:00:00 11.2 3 Nordeste 5 Nordeste 0.2 1010.1 0.6 98
2019-12-07 17:00:00 11.1 3 Norte 4 Norte 0 1009.9 -0.2 97
2019-12-07 16:00:00 11.1 3 Noroeste 6 Noroeste 0 1009.5 -1.3 95
2019-12-07 15:00:00 11.7 3 Noroeste 6 Oeste 0 1009.5 -1.8 88
2019-12-07 14:00:00 11.3 4 Oeste 7 Oeste 0 1010.1 -1.2 89
2019-12-07 13:00:00 10.4 2 Sur 6 Sudoeste 0 1010.8 0 93
2019-12-07 12:00:00 9.9 2 Sur 7 Este 0 1011.3 1.1 93
2019-12-07 11:00:00 8.8 3 Este 8 Norte 0 1011.3 1.2 94
2019-12-07 10:00:00 7.7 4 Nordeste 7 Nordeste 0 1010.8 1.2 95
2019-12-07 09:00:00 7.7 4 Nordeste 11 Nordeste 0 1010.2 0.6 95
2019-12-07 08:00:00 7 6 Sudeste 8 Este 0 1010.1 0.4 94
2019-12-07 07:00:00 7 3 Este 13 Nordeste 0 1009.6 -0.3 94
2019-12-07 06:00:00 6.5 3 Nordeste 12 Nordeste 0 1009.6 -0.3 94
2019-12-07 05:00:00 6.8 11 Nordeste 17 Este 0 1009.7 -0.3 94
2019-12-07 04:00:00 7.1 9 Nordeste 17 Este 0 1009.9 -0.3 95
2019-12-07 03:00:00 6.6 4 Nordeste 15 Este 0 1009.9 -0.7 95
2019-12-07 02:00:00 7.4 8 Nordeste 13 Nordeste 0 1010 -0.5 95
2019-12-07 01:00:00 7.1 4 Nordeste 16 Este 0 1010.2 0.1 95
2019-12-07 00:00:00 8 9 Nordeste 14 Nordeste 0 1010.6 0.8 94
2019-12-06 23:00:00 8.2 3 Norte 9 Este 0 1010.5 1.3 95
2019-12-06 22:00:00 8.8 7 Este 12 Este 0 1010.1 1.2 94
2019-12-06 21:00:00 9 7 Este 10 Este 0 1009.8 0.9 95
2019-12-06 20:00:00 9.2 3 Este 5 Noroeste 0 1009.2 0.6 94
2019-12-06 19:00:00 9.9 4 Este 5 Este 0 1008.9 0.7 90
2019-12-06 18:00:00 11.5 2 Sur 8 Sudoeste 0 1008.9 0.3 84
2019-12-06 17:00:00 12.7 5 Sur 10 Sudoeste 0 1008.6 -0.9 77
2019-12-06 16:00:00 13.4 5 Sudoeste 11 Oeste 0 1008.2 -1.7 73
2019-12-06 15:00:00 13 5 Sudoeste 10 Sudoeste 0 1008.6 -1.3 74
2019-12-06 14:00:00 12.1 4 Nordeste 11 Nordeste 0 1009.5 -1.1 83
2019-12-06 13:00:00 10.1 3 Norte 7 Noroeste 0 1009.9 -0.1 89
2019-12-06 12:00:00 9.9 4 Sudoeste 8 Nordeste 0 1009.9 0.9 89
2019-12-06 11:00:00 8.9 3 Nordeste 11 Este 0 1010.6 1.9 92
2019-12-06 10:00:00 7.6 8 Este 17 Nordeste 0 1010 1.2 92
2019-12-06 09:00:00 7 9 Nordeste 14 Nordeste 0 1009 0.7 93
2019-12-06 08:00:00 7.3 0 Calma 14 Este 0 1008.7 0.7 93
2019-12-06 07:00:00 7.5 8 Nordeste 13 Nordeste 0 1008.8 0.3 92
2019-12-06 06:00:00 7.3 9 Nordeste 13 Nordeste 0 1008.3 -0.1 94
2019-12-06 05:00:00 7.7 6 Nordeste 9 Este 0 1008 -0.3 90
2019-12-06 04:00:00 7.7 5 Este 15 Nordeste 0 1008.5 -0.3 89
2019-12-06 03:00:00 7.4 10 Nordeste 15 Nordeste 0 1008.4 -0.2 91
2019-12-06 02:00:00 7.3 6 Nordeste 11 Este 0 1008.3 0 92
2019-12-06 01:00:00 7.6 5 Este 8 Este 0 1008.8 0.7 91
2019-12-06 00:00:00 7.9 3 Sudeste 15 Este 0 1008.6 0.9 92
2019-12-05 23:00:00 9.4 8 Este 17 Nordeste 0 1008.3 1.1 85
2019-12-05 22:00:00 9.5 4 Nordeste 13 Nordeste 0 1008.1 1 86
2019-12-05 21:00:00 10.7 9 Nordeste 17 Nordeste 0 1007.7 1.3 81
2019-12-05 20:00:00 10.7 6 Norte 13 Nordeste 0 1007.2 0.9 82
2019-12-05 19:00:00 11.8 4 Noroeste 11 Noroeste 0 1007.1 1.2 78
2019-12-05 18:00:00 13.6 3 Sudoeste 17 Noroeste 0 1006.4 0.2 70
2019-12-05 17:00:00 15.3 7 Norte 21 Norte 0 1006.3 -0.2 66
2019-12-05 16:00:00 15.3 8 Norte 24 Nordeste 0 1005.9 -1.2 64
2019-12-05 15:00:00 15.2 8 Norte 29 Norte 0 1006.2 -1.1 65
2019-12-05 14:00:00 14.5 13 Nordeste 29 Nordeste 0 1006.5 -0.3 62
2019-12-05 13:00:00 14.3 8 Norte 23 Nordeste 0 1007.1 1.4 66
2019-12-05 12:00:00 13.4 13 Nordeste 31 Nordeste 0 1007.3 2.3 67
2019-12-05 11:00:00 11.4 3 Norte 17 Noroeste 0 1006.8 2.2 75
2019-12-05 10:00:00 9.1 4 Norte 17 Noroeste 0 1005.7 1.4 81
2019-12-05 09:00:00 8.9 10 Norte 23 Nordeste 0 1005 0.9 80
2019-12-05 08:00:00 8.1 12 Noroeste 23 Noroeste 0 1004.6 0.4 82
2019-12-05 07:00:00 7.6 8 Norte 17 Noroeste 0 1004.3 0.3 84
2019-12-05 06:00:00 8 12 Noroeste 25 Nordeste 0 1004.1 0.7 82
2019-12-05 05:00:00 8.5 7 Norte 24 Nordeste 0 1004.2 0.7 80
2019-12-05 04:00:00 8.4 11 Norte 30 Norte 0 1004 0.3 78
2019-12-05 03:00:00 8.4 14 Norte 28 Norte 0 1003.4 0.3 75
2019-12-05 02:00:00 7 9 Norte 19 Noroeste 0 1003.5 0.1 79
2019-12-05 01:00:00 6.8 4 Noroeste 14 Norte 0 1003.7 0.7 76
2019-12-05 00:00:00 6.8 4 Este 15 Nordeste 0 1003.1 0.9 75
2019-12-04 23:00:00 6.1 5 Norte 9 Oeste 0 1003.4 1.7 77
2019-12-04 22:00:00 6.8 4 Oeste 13 Norte 0 1003 2.1 76
2019-12-04 21:00:00 6.8 4 Nordeste 14 Norte 0 1002.2 2 78
2019-12-04 20:00:00 7.9 2 Este 15 Noroeste 0 1001.7 2 71
2019-12-04 19:00:00 9 7 Noroeste 12 Noroeste 0 1000.9 1.4 75
2019-12-04 18:00:00 10.7 3 Norte 8 Noroeste 0 1000.2 0.7 72
2019-12-04 17:00:00 12.3 4 Noroeste 10 Norte 0 999.7 0 65
2019-12-04 16:00:00 11.7 5 Oeste 13 Noroeste 0 999.5 -0.6 64
2019-12-04 15:00:00 11.5 5 Oeste 9 Noroeste 0 999.5 -1.1 65
2019-12-04 14:00:00 10.9 3 Noroeste 6 Noroeste 0 999.7 -0.6 66
2019-12-04 13:00:00 9.8 4 Noroeste 8 Noroeste 0 1000.1 0.2 66
2019-12-04 12:00:00 7.2 0 Calma 8 Nordeste 0 1000.6 1.3 78
2019-12-04 11:00:00 4.2 2 Noroeste 12 Nordeste 0 1000.3 1.3 84
2019-12-04 10:00:00 2.4 4 Este 17 Este 0 999.9 1 87
2019-12-04 09:00:00 3 11 Nordeste 17 Nordeste 0 999.3 0.5 84
2019-12-04 08:00:00 2.5 8 Este 21 Este 0 999 -0.1 84
2019-12-04 07:00:00 2.5 13 Este 18 Este 0 998.9 -0.5 87
2019-12-04 06:00:00 2.6 10 Nordeste 15 Nordeste 0 998.8 -1.1 88
2019-12-04 05:00:00 2.3 0 Calma 14 Este 0 999.1 -1 90
2019-12-04 04:00:00 2.8 6 Nordeste 22 Este 0 999.4 -0.9 88
2019-12-04 03:00:00 3 8 Este 20 Este 0 999.9 -0.7 88
2019-12-04 02:00:00 2.8 6 Este 18 Nordeste 0 1000.1 -0.5 88
2019-12-04 01:00:00 3.5 8 Nordeste 17 Nordeste 0 1000.3 -0.4 87
2019-12-04 00:00:00 3.9 14 Nordeste 18 Nordeste 0 1000.6 -0.1 86
2019-12-03 23:00:00 4.4 12 Nordeste 17 Nordeste 0 1000.6 0 84
2019-12-03 22:00:00 4.8 4 Nordeste 15 Nordeste 0 1000.7 0.2 84
2019-12-03 21:00:00 5.8 6 Este 17 Este 0 1000.7 0 83
2019-12-03 20:00:00 6.8 4 Este 15 Nordeste 0 1000.6 0 85
2019-12-03 19:00:00 7.7 3 Nordeste 8 Este 0 1000.5 -0.4 83
2019-12-03 18:00:00 9.9 3 Sur 10 Sudoeste 0 1000.7 -0.6 73
2019-12-03 17:00:00 11.9 7 Sudoeste 12 Sudoeste 0 1000.6 -1.4 58
2019-12-03 16:00:00 11.7 7 Sudoeste 14 Sudoeste 0 1000.9 -2.3 51
2019-12-03 15:00:00 11.9 4 Sudoeste 11 Sudoeste 0 1001.3 -2.9 51
2019-12-03 14:00:00 11.2 4 Oeste 8 Oeste 0 1002 -2.3 63
2019-12-03 13:00:00 10.1 3 Oeste 9 Sur 0 1003.2 -1.2 66
2019-12-03 12:00:00 9.1 4 Sur 9 Nordeste 0 1004.2 -0.3 71
2019-12-03 11:00:00 6.4 4 Nordeste 11 Nordeste 0 1004.3 -0.3 74
2019-12-03 10:00:00 3.9 8 Nordeste 11 Nordeste 0 1004.4 0 83
2019-12-03 09:00:00 3.6 6 Este 11 Este 0 1004.5 0.1 83
2019-12-03 08:00:00 3.6 2 Sudeste 5 Sudeste 0 1004.6 -0.3 84
2019-12-03 07:00:00 3.8 2 Sur 15 Nordeste 0 1004.4 -1.1 84
2019-12-03 06:00:00 4.7 9 Este 13 Nordeste 0 1004.4 -1.5 79
2019-12-03 05:00:00 5.3 9 Nordeste 14 Nordeste 0 1004.9 -1.4 77
2019-12-03 04:00:00 5.6 7 Nordeste 13 Nordeste 0 1005.5 -0.9 77
2019-12-03 03:00:00 6.1 9 Nordeste 17 Nordeste 0 1005.9 -0.8 76
2019-12-03 02:00:00 6.3 5 Este 21 Nordeste 0 1006.3 -0.3 77
2019-12-03 01:00:00 7.2 10 Nordeste 21 Nordeste 0 1006.4 -0.3 74
2019-12-03 00:00:00 7.8 9 Nordeste 21 Nordeste 0 1006.7 0.4 72
2019-12-02 23:00:00 8 10 Nordeste 22 Nordeste 0 1006.6 0.2 72
2019-12-02 22:00:00 7.9 3 Este 14 Nordeste 0 1006.7 0.7 75
2019-12-02 21:00:00 9.2 8 Nordeste 21 Nordeste 0 1006.3 0.7 70
2019-12-02 20:00:00 9.4 7 Norte 20 Norte 0 1006.4 1.1 70
2019-12-02 19:00:00 10.1 10 Nordeste 33 Nordeste 0 1006 0.8 67
2019-12-02 18:00:00 10.8 12 Nordeste 30 Norte 0 1005.6 0 65
2019-12-02 17:00:00 12.1 9 Norte 41 Nordeste 0 1005.3 -0.6 61
2019-12-02 16:00:00 12.6 14 Norte 40 Nordeste 0 1005.2 -1.7 61
2019-12-02 15:00:00 12.9 19 Nordeste 48 Nordeste 0 1005.6 -1.7 59
2019-12-02 14:00:00 12.9 15 Norte 38 Norte 0 1005.9 -1.5 63
2019-12-02 13:00:00 13.1 13 Norte 47 Norte 0 1006.9 0.1 64
2019-12-02 12:00:00 12.7 14 Norte 35 Nordeste 0 1007.3 0.9 65
2019-12-02 11:00:00 11.7 8 Norte 23 Norte 0 1007.4 1.6 75
2019-12-02 10:00:00 10 5 Norte 21 Nordeste 0 1006.8 1.5 82
2019-12-02 09:00:00 9.7 7 Nordeste 24 Nordeste 0 1006.4 1.3 81
2019-12-02 08:00:00 9.7 8 Nordeste 24 Norte 0 1005.8 0.5 79
2019-12-02 07:00:00 8.7 8 Nordeste 18 Nordeste 0 1005.3 -0.3 85
2019-12-02 06:00:00 8.2 8 Norte 21 Norte 0 1005.1 -0.4 86
2019-12-02 05:00:00 8.8 9 Norte 17 Noroeste 0 1005.3 0.2 82
2019-12-02 04:00:00 8.8 7 Nordeste 19 Norte 0 1005.6 0.2 80
2019-12-02 03:00:00 8.8 9 Norte 29 Noroeste 0 1005.5 0.2 79
2019-12-02 02:00:00 8.6 9 Norte 22 Norte 0 1005.1 -0.3 78
2019-12-02 01:00:00 8.3 6 Nordeste 18 Nordeste 0 1005.4 0.4 80
2019-12-02 00:00:00 8.5 4 Este 19 Noroeste 0 1005.3 0.8 83
2019-12-01 23:00:00 8.9 5 Norte 21 Norte 0 1005.4 1.3 81
2019-12-01 22:00:00 9.2 4 Noroeste 31 Norte 0 1005 2 78
2019-12-01 21:00:00 9.8 10 Noroeste 33 Noroeste 0 1004.5 2.8 75
2019-12-01 20:00:00 10.4 15 Norte 33 Norte 0 1004.1 3.4 77
2019-12-01 19:00:00 10.8 18 Norte 37 Noroeste 0 1003 3 79
2019-12-01 18:00:00 11.8 12 Noroeste 36 Noroeste 0 1001.7 2.1 80
2019-12-01 17:00:00 13.4 17 Noroeste 33 Norte 0 1000.7 1.1 72
2019-12-01 16:00:00 13.8 15 Norte 32 Noroeste 0 1000 0.5 68
2019-12-01 15:00:00 13.5 14 Norte 32 Norte 0 999.6 0 69
2019-12-01 14:00:00 12.4 10 Norte 26 Noroeste 0 999.6 1.1 76
2019-12-01 13:00:00 12.7 10 Norte 35 Norte 0 999.5 2 78
2019-12-01 12:00:00 11.7 19 Noroeste 38 Norte 0 999.6 3.9 78
2019-12-01 11:00:00 11.3 6 Norte 21 Norte 0 998.5 4.9 83
2019-12-01 10:00:00 9.4 6 Nordeste 28 Noroeste 0 997.5 5.6 93
2019-12-01 09:00:00 9.2 8 Noroeste 17 Nordeste 0 995.7 5 92
2019-12-01 08:00:00 9.9 5 Nordeste 15 Nordeste 0 993.6 2.9 91
2019-12-01 07:00:00 10.2 8 Nordeste 17 Nordeste 0.2 991.9 0.5 94
2019-12-01 06:00:00 10.4 12 Este 22 Este 2.2 990.7 -1.1 97
2019-12-01 05:00:00 10.7 6 Sur 20 Sur 1.6 990.7 -2.4 96
2019-12-01 04:00:00 10.6 11 Sur 30 Sur 1.4 991.4 -3 97
2019-12-01 03:00:00 10.5 14 Sur 33 Sudeste 0.8 991.8 -3 95
2019-12-01 02:00:00 10.4 10 Sur 19 Sur 0.4 993.1 -2.9 96
2019-12-01 01:00:00 10.3 14 Sudoeste 50 Sudeste 4.4 994.4 -2.9 95
2019-12-01 00:00:00 11.1 20 Sur 41 Sur 2.4 994.8 -4 94
2019-11-30 23:00:00 11.6 18 Sur 35 Sur 0.2 996 -3.5 90
2019-11-30 22:00:00 11.3 16 Sur 33 Sudeste 0.4 997.3 -2.3 92
2019-11-30 21:00:00 10.8 4 Sudoeste 31 Sudoeste 4.2 998.8 -1.2 95
2019-11-30 20:00:00 11.4 12 Sudoeste 30 Oeste 2.2 999.5 -1 87
2019-11-30 19:00:00 11.9 16 Sur 27 Sur 0 999.6 -1.2 84
2019-11-30 18:00:00 11.6 5 Sur 34 Sudoeste 0.4 1000 -0.9 94
2019-11-30 17:00:00 13.2 14 Sudoeste 41 Sudoeste 0 1000.5 -1.1 83
2019-11-30 16:00:00 14 16 Sudoeste 44 Sudoeste 0 1000.8 -1.3 77
2019-11-30 15:00:00 14.4 18 Sudoeste 42 Sudoeste 0 1000.9 -1.7 76
2019-11-30 14:00:00 14 15 Sudoeste 39 Sudoeste 0 1001.6 -1.1 75
2019-11-30 13:00:00 14.7 13 Sudoeste 32 Sudoeste 0.6 1002.1 -0.4 78
2019-11-30 12:00:00 14.1 16 Sudoeste 30 Sudoeste 0 1002.6 0.5 83
2019-11-30 11:00:00 11.5 3 Sur 11 Sur 0 1002.7 1.2 97
2019-11-30 10:00:00 10.7 6 Sur 17 Sudoeste 0 1002.5 1.1 95
2019-11-30 09:00:00 11.4 7 Sur 36 Sudoeste 0 1002.1 0.9 95
2019-11-30 08:00:00 13.6 13 Sudoeste 29 Sudoeste 0 1001.5 1 95
2019-11-30 07:00:00 13.4 13 Sudoeste 30 Sudoeste 0 1001.4 0.3 94
2019-11-30 06:00:00 13.9 18 Sudoeste 48 Sudoeste 0 1001.2 0.3 98
2019-11-30 05:00:00 15.2 16 Sur 53 Sudoeste 0 1000.5 -0.9 97
2019-11-30 04:00:00 15.2 19 Sudoeste 50 Sudoeste 0 1001.1 -0.5 98
2019-11-30 03:00:00 15.2 18 Sur 48 Sudoeste 0 1000.9 -0.6 98
2019-11-30 02:00:00 15.3 14 Sur 44 Sudoeste 0 1001.4 -0.9 97
2019-11-30 01:00:00 15.4 17 Sur 36 Sur 0 1001.6 -1.2 98
2019-11-30 00:00:00 15.5 18 Sur 39 Sudoeste 0 1001.5 -1.8 97
2019-11-29 23:00:00 15.2 15 Sur 32 Sur 0 1002.3 -1.2 99
2019-11-29 22:00:00 14.6 7 Sur 21 Sur 0 1002.8 -1.1 99
2019-11-29 21:00:00 14 4 Sur 8 Sudeste 0 1003.3 -0.5 98
2019-11-29 20:00:00 13.8 3 Sudoeste 4 Sudoeste 0 1003.5 -0.3 96
2019-11-29 19:00:00 14.3 2 Sur 5 Sudeste 0 1003.9 0.1 93
2019-11-29 18:00:00 14.6 0 Calma 8 Sudoeste 0 1003.8 -0.1 88
2019-11-29 17:00:00 15.9 4 Sur 14 Sur 0 1003.8 -0.8 86
2019-11-29 16:00:00 16.3 6 Sur 18 Sudoeste 0 1003.8 -1.8 82
2019-11-29 15:00:00 16.6 6 Sur 13 Sur 0 1003.9 -2 81
2019-11-29 14:00:00 15.9 5 Sur 14 Sur -- 1004.6 -1.1 86
2019-11-29 13:00:00 14.1 3 Noroeste 5 Noroeste -- 1005.6 0.7 95
2019-11-29 12:00:00 13.2 3 Norte 8 Nordeste -- 1005.9 1.5 98
2019-11-29 11:00:00 12.3 4 Norte 9 Este -- 1005.7 1.3 100
2019-11-29 10:00:00 11.3 7 Este 10 Nordeste -- 1004.9 0.9 100
2019-11-29 09:00:00 10.8 2 Nordeste 11 Nordeste -- 1004.4 0.8 100
2019-11-29 08:00:00 11.2 6 Nordeste 11 Este -- 1004.4 1.1 100
2019-11-29 07:00:00 11.3 6 Norte 10 Norte -- 1004 1.1 100
2019-11-29 06:00:00 11.5 6 Este 10 Nordeste -- 1003.6 1.2 100
2019-11-29 05:00:00 11.4 5 Nordeste 8 Nordeste -- 1003.3 1.2 100
2019-11-29 04:00:00 11.5 5 Nordeste 6 Norte -- 1002.9 0.7 100
2019-11-29 03:00:00 11.8 0 Calma 6 Nordeste -- 1002.4 0.9 100
2019-11-29 02:00:00 11.8 5 Sudeste 8 Sudeste -- 1002.1 1.1 100
2019-11-29 01:00:00 12.2 0 Calma 6 Sudeste -- 1002.2 1.8 100
2019-11-29 00:00:00 12 4 Sudeste 5 Sudeste -- 1001.5 2 99
2019-11-28 23:00:00 12.7 0 Calma 5 Oeste -- 1001 2.3 98
2019-11-28 22:00:00 13.1 4 Sudoeste 8 Sur -- 1000.4 2.4 98
2019-11-28 21:00:00 14 6 Sudoeste 19 Sudoeste -- 999.5 2 97
2019-11-28 20:00:00 14.3 9 Sudoeste 29 Sudoeste -- 998.7 3 97
2019-11-28 19:00:00 14.8 17 Sudoeste 40 Sudoeste -- 998 2.7 96
2019-11-28 18:00:00 15.1 18 Sudoeste 51 Sudoeste -- 997.5 1.9 98
2019-11-28 17:00:00 15.1 21 Sur -- -- -- 995.7 -0.8 98
2019-11-28 16:00:00 14.8 26 Sur 58 Sur -- 995.3 -2.8 96
2019-11-28 15:00:00 13.9 22 Sur 52 Sur -- 995.6 -3.2 97
2019-11-28 14:00:00 13 17 Sur 38 Sur -- 996.5 -2.5 98
2019-11-28 13:00:00 13 11 Sur 24 Sudeste -- 998.1 -1 98
2019-11-28 12:00:00 13.1 10 Sur 23 Sur -- 998.8 0.3 98
2019-11-28 11:00:00 12.7 9 Sur 17 Sur -- 999 0.9 99
2019-11-28 10:00:00 12.3 4 Sur 14 Sur -- 999.1 1.7 100
2019-11-28 09:00:00 12 8 Sur 13 Sur -- 998.5 1 100
2019-11-28 08:00:00 12 8 Sur 15 Sur -- 998.1 1 100
2019-11-28 07:00:00 12.2 3 Sudeste 6 Sudoeste -- 997.4 0 100
2019-11-28 06:00:00 12.1 4 Sudoeste 8 Sudoeste -- 997.5 0.5 100
2019-11-28 05:00:00 12.3 4 Sur 7 Nordeste -- 997.1 -0.2 100
2019-11-28 04:00:00 13 3 Sudoeste 17 Sudoeste -- 997.4 -0.1 100
2019-11-28 03:00:00 13.1 10 Sudoeste 17 Sudoeste -- 997 -0.6 100
2019-11-28 02:00:00 13.4 5 Sudoeste 19 Sudoeste -- 997.3 -0.3 99
2019-11-28 01:00:00 13.4 8 Sur 19 Sudoeste -- 997.5 0.1 99
2019-11-28 00:00:00 13.4 7 Sur 26 Sur -- 997.6 0.4 98
2019-11-27 23:00:00 13.4 13 Sur 37 Sudoeste -- 997.6 0.8 96
2019-11-27 22:00:00 13.1 14 Sur 33 Sudoeste -- 997.4 0.4 98
2019-11-27 21:00:00 12.8 19 Sur 40 Sudeste -- 997.2 0.4 98
2019-11-27 20:00:00 12.5 12 Sur 22 Sur -- 996.8 0.4 96
2019-11-27 19:00:00 12.6 12 Sur 32 Sur -- 997 1.4 94
2019-11-27 18:00:00 12.3 12 Sur 40 Sur -- 996.8 0.7 96
2019-11-27 17:00:00 12.6 17 Sudoeste 50 Sudoeste -- 996.4 -0.4 93
2019-11-27 16:00:00 13.5 12 Sur 34 Sur -- 995.6 -1.1 90
2019-11-27 15:00:00 12.8 10 Sur 29 Sudoeste -- 996.1 -0.9 97
2019-11-27 14:00:00 12.1 8 Sudoeste 46 Sudoeste -- 996.8 0 98
2019-11-27 06:00:00 11.8 7 Sudoeste 31 Sudoeste 0.2 994.9 0.3 98
2019-11-27 05:00:00 12.3 6 Sudoeste 18 Sudoeste 0 994.9 0.7 98
2019-11-27 04:00:00 12 8 Sudoeste 33 Sudoeste 3 995.1 1.1 99
2019-11-27 03:00:00 12.3 6 Sudoeste 28 Sudoeste 0 994.6 1.2 98
2019-11-27 02:00:00 12.1 18 Sudoeste 38 Sur 3 994.2 1.2 97
2019-11-27 01:00:00 12.2 13 Sudoeste 33 Sudoeste 0.2 994 1.1 95
2019-11-27 00:00:00 11.8 12 Sur 48 Sudoeste 1.8 993.4 1 94
2019-11-26 23:00:00 12.2 14 Sur 49 Sur 0.2 993 1.4 87
2019-11-26 22:00:00 12.2 8 Sudoeste 35 Sudoeste 0.2 992.9 2 91
2019-11-26 21:00:00 12.4 14 Sudoeste 36 Sur 0 992.4 2.4 85
2019-11-26 20:00:00 12.7 20 Sudoeste 41 Sudoeste 2 991.6 3.5 89
2019-11-26 19:00:00 13.1 16 Sudoeste 51 Sudoeste 0 990.9 2.4 87
2019-11-26 18:00:00 12.2 14 Sur 72 Sudoeste 2.2 990 1.1 91
2019-11-26 17:00:00 15 27 Sur 65 Sudoeste 0.4 988.1 -1.2 87
2019-11-26 16:00:00 15.5 30 Sur 65 Sur 0 988.5 -2.1 82
2019-11-26 15:00:00 15 21 Sur 58 Sur 0 988.9 -3 90
2019-11-26 14:00:00 14.2 25 Sur 49 Sur 2.2 989.3 -3.2 96
2019-11-26 13:00:00 15.9 21 Sur 51 Sur 0 990.6 -2.7 85
2019-11-26 12:00:00 16.4 20 Sur 41 Sur 0 991.9 -1.5 82
2019-11-26 11:00:00 15.3 20 Sur 38 Sur 0 992.5 -1.4 89
2019-11-26 10:00:00 14.7 12 Sur 32 Sur 0 993.3 -0.9 93
2019-11-26 09:00:00 14.9 15 Sur 32 Sur 0 993.4 -0.8 91
2019-11-26 08:00:00 14.4 9 Sur 24 Sudoeste 0.6 993.9 -0.3 93
2019-11-26 07:00:00 14.8 12 Sur 30 Sudoeste 0 994.2 -0.1 94
2019-11-26 06:00:00 15 9 Sur 26 Sudoeste 0 994.2 0 95
2019-11-26 05:00:00 15.2 14 Sudoeste 37 Sudoeste 0 994.2 -0.3 97
2019-11-26 04:00:00 15.6 15 Sur 38 Sudoeste 0 994.3 -1.7 98
2019-11-26 03:00:00 15.2 20 Sur 41 Sur 0 994.2 -2 99
2019-11-26 02:00:00 15 20 Sur 41 Sur 0 994.5 -2.5 98
2019-11-26 01:00:00 14.6 16 Sur 42 Sudeste 0 996 -1.6 95
2019-11-26 00:00:00 14.2 18 Sudeste 48 Sur 0 996.2 -2.1 96
2019-11-25 23:00:00 14 6 Sur 34 Sudeste 0 997 -1.8 96
2019-11-25 22:00:00 14 9 Sur 26 Sur 0 997.6 -1.6 94
2019-11-25 21:00:00 14.4 12 Sudeste 26 Sur 0 998.3 -1.2 89
2019-11-25 20:00:00 14.1 12 Sudeste 23 Sudeste 0 998.8 -0.6 90
2019-11-25 19:00:00 14.3 11 Sudeste 28 Sur 0 999.2 0.1 88
2019-11-25 18:00:00 14.3 13 Sur 33 Sur 0 999.5 0 88
2019-11-25 17:00:00 14.9 14 Sur 29 Sur 0 999.4 -0.3 80
2019-11-25 16:00:00 15.2 17 Sur 32 Sudeste 0 999.1 -0.8 76
2019-11-25 15:00:00 15.4 11 Sur 31 Sudoeste 0 999.5 -0.7 78
2019-11-25 14:00:00 15.2 13 Sudoeste 30 Sur 0 999.7 -0.2 80
2019-11-25 13:00:00 14.6 13 Sur 24 Sur 0 999.9 0.6 86
2019-11-25 12:00:00 13.7 6 Sur 16 Sur 0 1000.2 1.4 91
2019-11-25 11:00:00 13.4 3 Sudoeste 10 Sudoeste 0 999.9 1.8 93
2019-11-25 10:00:00 12.6 3 Sudoeste 11 Sur 0 999.3 2.4 95
2019-11-25 09:00:00 12.6 5 Sur 28 Sur 0 998.8 1.9 97
2019-11-25 08:00:00 13.5 14 Sudoeste 38 Sudoeste 0 998.1 1.3 95
2019-11-25 07:00:00 14.1 10 Sur 36 Sudoeste 0 996.9 0 92
2019-11-25 06:00:00 13.8 11 Sur 40 Sudoeste 0 996.9 0.6 92
2019-11-25 05:00:00 13.9 14 Sur 32 Sudoeste 0 996.8 0.6 95
2019-11-25 04:00:00 13.5 12 Sudoeste 26 Sudoeste 0 996.9 0.5 97
2019-11-25 03:00:00 14.1 14 Sudoeste 36 Sudoeste 0 996.3 0.6 95
2019-11-25 02:00:00 14.2 8 Sudoeste 29 Sur 0 996.2 0.9 92
2019-11-25 01:00:00 14.6 13 Sur 43 Sudoeste 0 996.4 1.7 90
2019-11-25 00:00:00 14.9 21 Sudoeste 49 Sudoeste 0 995.7 0.8 96
2019-11-24 23:00:00 15.1 19 Sudoeste 44 Sudoeste 0 995.3 0.8 96
2019-11-24 22:00:00 15.3 20 Sudoeste 41 Sudoeste 0 994.7 0.2 98
2019-11-24 21:00:00 14.8 14 Sur 33 Sur 2.6 994.9 0.8 100
2019-11-24 20:00:00 13.9 9 Sudoeste 47 Sur 1.6 994.5 1 98
2019-11-24 19:00:00 14.6 13 Sur 37 Sur 1.6 994.5 -0.1 98
2019-11-24 18:00:00 14.5 21 Sur 55 Sur 1 994.1 -1.2 97
2019-11-24 17:00:00 13.1 19 Sur 42 Sur 0 993.5 -3.1 98
2019-11-24 16:00:00 12.4 13 Sudeste 37 Sur 0 994.6 -3.4 97
2019-11-24 15:00:00 12.3 20 Sudeste 48 Sur 0 995.3 -3.8 95
2019-11-24 14:00:00 11.4 9 Sur 31 Sur 0 996.6 -2.7 97
2019-11-24 13:00:00 10.9 6 Sudoeste 29 Sudeste 0 998 -1.5 97
2019-11-24 12:00:00 10.8 6 Sur 19 Sudoeste 0 999.1 -0.3 95
2019-11-24 11:00:00 11 10 Sur 28 Sur 0 999.3 -0.3 90
2019-11-24 10:00:00 10.5 12 Sudeste 25 Sudeste 0 999.5 -0.1 90
2019-11-24 09:00:00 9.2 0 Calma 17 Sur 0 999.4 -0.1 94
2019-11-24 08:00:00 8.7 3 Nordeste 10 Norte 0 999.6 -0.4 96
2019-11-24 07:00:00 8.5 4 Norte 8 Norte 0 999.6 -0.9 96
2019-11-24 06:00:00 8.4 4 Norte 7 Norte 0 999.5 -0.6 97
2019-11-24 05:00:00 8.2 2 Este 7 Nordeste 0 1000 -0.1 98
2019-11-24 04:00:00 8 3 Nordeste 10 Nordeste 0 1000.5 0.3 98
2019-11-24 03:00:00 7.6 5 Nordeste 7 Nordeste 0 1000.1 0.1 98
2019-11-24 02:00:00 7.2 4 Nordeste 9 Nordeste 0 1000.1 0 97
2019-11-24 01:00:00 7.7 4 Sudeste 10 Nordeste 0 1000.2 0.6 97
2019-11-24 00:00:00 8.1 0 Calma 4 Este 0 1000 0.6 96
2019-11-23 23:00:00 8.3 3 Este 5 Este 0 1000.1 0.9 94
2019-11-23 22:00:00 8.5 5 Este 8 Nordeste 0 999.6 1 93
2019-11-23 21:00:00 9.5 4 Sudeste 10 Sudoeste 0 999.4 1.9 91
2019-11-23 20:00:00 10.7 8 Oeste 13 Oeste 0.2 999.2 2.5 85
2019-11-23 19:00:00 11 2 Sur 11 Sudoeste 0 998.6 2.8 88
2019-11-23 18:00:00 12.3 8 Sudoeste 27 Oeste 0 997.5 2 80
2019-11-23 17:00:00 13.4 15 Oeste 31 Oeste 0 996.7 1.6 73
2019-11-23 16:00:00 13.4 8 Oeste 27 Noroeste 0 995.8 0.8 77
2019-11-23 15:00:00 12.4 9 Oeste 27 Oeste 0 995.5 0.9 83
2019-11-23 14:00:00 13.1 13 Sudoeste 25 Oeste 0 995.1 1.5 76
2019-11-23 13:00:00 12.4 8 Sudoeste 15 Sudoeste 0 995 2.3 83
2019-11-23 12:00:00 11.4 4 Sur 11 Sur 0 994.6 3.1 90
2019-11-23 11:00:00 9.3 4 Sudeste 9 Nordeste 0 993.6 3.2 98
2019-11-23 10:00:00 8.3 3 Este 10 Norte 0 992.7 3.6 97
2019-11-23 09:00:00 7.6 3 Sudeste 12 Nordeste 0 991.5 3.4 98
2019-11-23 08:00:00 7.3 3 Nordeste 6 Este 0 990.4 3.1 97
2019-11-23 07:00:00 8 4 Nordeste 7 Norte 0 989.1 2.8 94
2019-11-23 06:00:00 7.8 5 Sudeste 9 Sudeste 0.4 988.1 2.7 96
2019-11-23 05:00:00 7.9 3 Sudeste 13 Norte 0.2 987.3 3.2 93
2019-11-23 04:00:00 8.5 2 Sur 26 Sudoeste 0 986.3 3.1 89
2019-11-23 03:00:00 8.4 6 Sudeste 30 Oeste 0.2 985.4 3.5 91
2019-11-23 02:00:00 8.9 7 Oeste 36 Oeste 0.2 984.1 3.4 89
2019-11-23 01:00:00 9.4 14 Oeste 37 Oeste 1.4 983.2 3.4 88
2019-11-23 00:00:00 9.8 17 Oeste 34 Oeste 0.2 981.9 4.1 88
2019-11-22 23:00:00 9.3 12 Oeste 52 Oeste 2.4 980.7 4.3 91
2019-11-22 22:00:00 9.5 27 Oeste 68 Noroeste 6.8 979.8 4.6 91
2019-11-22 21:00:00 10.4 27 Oeste 69 Oeste 1.6 977.8 3.3 89
2019-11-22 20:00:00 10.9 26 Oeste 56 Oeste 2 976.4 3.1 90
2019-11-22 19:00:00 11.2 27 Sudoeste 56 Sudoeste 1.8 975.2 2.9 93
2019-11-22 18:00:00 12 24 Sudoeste 50 Sudoeste 0 974.5 1.9 89
2019-11-22 17:00:00 12.1 26 Sudoeste 67 Sudoeste 1.8 973.3 -0.1 95
2019-11-22 16:00:00 12 23 Sudoeste 49 Sudoeste 2.6 972.3 -2 98
2019-11-22 15:00:00 12.2 18 Sudoeste 32 Sudoeste 1.2 972.6 -1.8 94
2019-11-22 14:00:00 11.9 15 Sudoeste 39 Sudoeste 1.8 973.4 -0.8 89
2019-11-22 13:00:00 12.1 14 Sudoeste 57 Oeste 2 974.3 1.6 93
2019-11-22 12:00:00 13 16 Sudoeste 46 Sudoeste 0.4 974.4 2.4 95
2019-11-22 11:00:00 12.5 18 Sudoeste 54 Sudoeste 1.6 974.2 2 95
2019-11-22 10:00:00 14.1 22 Sur 64 Sudoeste 0.4 972.7 -1.7 96
2019-11-22 09:00:00 14.2 29 Sur 59 Sur 1.8 972 -4.2 98
2019-11-22 08:00:00 13 20 Sur 41 Sur 5.2 972.2 -5.3 99
2019-11-22 07:00:00 12 18 Sur 45 Sur 1.2 974.4 -4.5 98
2019-11-22 06:00:00 11.5 21 Sur 53 Sur 1.4 976.2 -5.1 96
2019-11-22 05:00:00 11 23 Sur 54 Sur 0 977.5 -6 96
2019-11-22 04:00:00 10.4 13 Sudeste 39 Este 0 978.9 -6.8 95
2019-11-22 03:00:00 10.3 17 Sudeste 38 Sudeste 0 981.3 -5.3 94
2019-11-22 02:00:00 10.4 9 Sudeste 30 Sudeste 0 983.5 -4.4 93
2019-11-22 01:00:00 10.6 6 Sur 19 Sur 0 985.7 -3 93
2019-11-22 00:00:00 11 13 Sur 27 Sur 0 986.6 -2.4 89
2019-11-21 23:00:00 10.9 10 Sur 27 Sudeste 0 987.9 -2 89
2019-11-21 22:00:00 10.9 12 Sudeste 27 Sur 0 988.7 -1.5 87
2019-11-21 21:00:00 10.5 9 Sudeste 18 Sudeste 0 989 -1.7 86
2019-11-21 20:00:00 10.6 3 Sur 17 Sudeste 0 989.9 -0.7 85
2019-11-21 19:00:00 10.6 6 Sudeste 14 Sur 0 990.2 -0.5 84
2019-11-21 18:00:00 11.1 8 Sur 16 Sur 0 990.7 -0.1 82
2019-11-21 17:00:00 12.1 7 Sur 19 Sur 0 990.6 -0.7 79
2019-11-21 16:00:00 13.1 9 Sur 30 Sur 0 990.7 -1.3 76
2019-11-21 15:00:00 13.1 10 Sur 23 Sudeste 0 990.8 -1.4 73
2019-11-21 14:00:00 13 6 Sur 14 Sur 0 991.3 -0.9 82
2019-11-21 13:00:00 12.1 4 Sur 14 Sur 0 992 0.1 89
2019-11-21 12:00:00 10.9 3 Sudoeste 8 Sudoeste 0 992.2 0.6 97
2019-11-21 11:00:00 9.1 3 Norte 5 Oeste 0 992.2 1 100
2019-11-21 10:00:00 8.1 3 Norte 12 Sudeste 0.2 991.9 1 100
2019-11-21 09:00:00 7.5 5 Sudeste 15 Este 2 991.6 1.1 100
2019-11-21 08:00:00 6.7 9 Norte 14 Nordeste 0.2 991.2 0.5 99
2019-11-21 07:00:00 7.4 3 Nordeste 7 Norte 0 990.9 -0.1 100
2019-11-21 06:00:00 7.3 6 Norte 10 Norte 0 990.5 -0.1 100
2019-11-21 05:00:00 7.5 3 Este 5 Norte 0 990.7 0.2 100
2019-11-21 04:00:00 7.9 4 Nordeste 11 Sudeste 0.8 991 0.2 99
2019-11-21 03:00:00 8.2 6 Norte 11 Noroeste 0 990.6 0 99
2019-11-21 02:00:00 8.4 4 Sudeste 10 Sudeste 4 990.5 -0.2 99
2019-11-21 01:00:00 8.2 7 Nordeste 13 Norte 5.2 990.8 0.1 99
2019-11-21 00:00:00 7.8 2 Nordeste 9 Norte 0 990.6 -0.1 98
2019-11-20 23:00:00 8.1 4 Nordeste 9 Este 0 990.7 0 97
2019-11-20 22:00:00 8.4 2 Sudeste 10 Nordeste 0 990.7 0.6 98
2019-11-20 21:00:00 8.6 4 Nordeste 15 Sudeste 1.2 990.7 0.7 97
2019-11-20 20:00:00 8.9 5 Sur 18 Sudeste 6 990.7 0.4 97
2019-11-20 19:00:00 9 4 Nordeste 8 Norte 1.2 990.1 -0.4 97
2019-11-20 18:00:00 9.4 5 Nordeste 14 Sudeste 0 990 -0.8 96
2019-11-20 17:00:00 9.9 5 Sudeste 12 Sudeste 0 990.3 -1 94
2019-11-20 16:00:00 9.5 5 Este 13 Sudoeste 0.8 990.5 -1.7 96
2019-11-20 15:00:00 9.7 3 Sur 24 Sur 0 990.8 -1.8 92
2019-11-20 14:00:00 9 8 Sur 26 Sudeste 1.2 991.3 -1.5 99
2019-11-20 13:00:00 8.5 5 Oeste 13 Norte 2 992.2 -0.5 98
2019-11-20 12:00:00 8.5 6 Norte 10 Norte 0 992.6 -0.2 97
2019-11-20 11:00:00 7.6 3 Oeste 9 Nordeste 0 992.8 -0.1 99
2019-11-20 10:00:00 7.5 4 Norte 8 Nordeste 0 992.7 -0.5 99
2019-11-20 09:00:00 6.9 0 Calma 12 Este 0 992.8 -0.8 99
2019-11-20 08:00:00 7.1 6 Nordeste 11 Nordeste 0 992.9 -1.1 100
2019-11-20 07:00:00 6.6 8 Este 12 Nordeste 0 993.2 -1.5 99
2019-11-20 06:00:00 6.9 2 Norte 8 Nordeste 0 993.6 -1.5 99
2019-11-20 05:00:00 6.6 5 Norte 9 Nordeste 0 994 -2 98
2019-11-20 04:00:00 7.4 3 Nordeste 8 Este 0 994.7 -1.9 99
2019-11-20 03:00:00 7.8 4 Este 9 Este 0 995.1 -1.7 99
2019-11-20 02:00:00 8.2 2 Este 8 Norte 0 996 -1.3 99
2019-11-20 01:00:00 8.6 4 Sudeste 9 Sudeste 0 996.6 -0.9 99
2019-11-20 00:00:00 8.7 0 Calma 8 Sudeste 0 996.8 -0.8 97
2019-11-19 23:00:00 9.5 4 Sudeste 9 Norte 0 997.3 -0.7 98
2019-11-19 22:00:00 9.4 5 Norte 9 Nordeste 0 997.5 -0.8 99
2019-11-19 21:00:00 9.4 5 Nordeste 9 Nordeste 0 997.6 -0.7 100
2019-11-19 20:00:00 9.3 4 Nordeste 7 Norte 0.4 998 -0.3 99
2019-11-19 19:00:00 9.5 0 Calma 8 Sur 0.4 998.3 -0.2 99
2019-11-19 18:00:00 9.3 0 Calma 7 Norte 1 998.3 -0.9 99
2019-11-19 17:00:00 9.2 2 Norte 8 Norte 1 998.3 -1.5 99
2019-11-19 16:00:00 9.1 5 Norte 9 Norte 0.2 998.5 -2.3 99
2019-11-19 15:00:00 9 4 Norte 12 Nordeste 0 999.2 -2.4 98
2019-11-19 14:00:00 9.1 4 Noroeste 14 Sur 0 999.8 -2.2 96
2019-11-19 13:00:00 8.7 4 Norte 10 Este 0 1000.8 -1.3 97
2019-11-19 12:00:00 8.9 3 Noroeste 7 Oeste 0 1001.6 -0.5 95
2019-11-19 11:00:00 8.3 2 Noroeste 8 Norte 0 1002 -0.1 95
2019-11-19 10:00:00 7.4 4 Noroeste 9 Norte 0 1002.1 0 96
2019-11-19 09:00:00 7.2 4 Norte 9 Noroeste 0 1002.1 -0.2 95
2019-11-19 08:00:00 7.1 2 Noroeste 5 Sudeste 0 1002.1 -0.6 95
2019-11-19 07:00:00 6.8 3 Sudeste 6 Este 0 1002.1 -1.2 97
2019-11-19 06:00:00 6.3 2 Nordeste 8 Norte 0 1002.3 -1.4 98
2019-11-19 05:00:00 5.8 3 Nordeste 8 Nordeste 0 1002.7 -1.5 98
2019-11-19 04:00:00 5.3 5 Nordeste 12 Nordeste 0 1003.3 -1.3 95
2019-11-19 03:00:00 5.3 4 Nordeste 14 Nordeste 0 1003.7 -0.9 96
2019-11-19 02:00:00 5.8 10 Nordeste 16 Nordeste 0 1004.2 -0.8 94
2019-11-19 01:00:00 5.9 5 Este 19 Nordeste 0 1004.6 -0.7 94
2019-11-19 00:00:00 6.3 9 Nordeste 17 Nordeste 0 1004.6 -0.9 94
2019-11-18 23:00:00 6.8 11 Nordeste 16 Nordeste 0 1005 -0.1 94
2019-11-18 22:00:00 7.2 10 Este 15 Nordeste 0 1005.3 0.3 94
2019-11-18 21:00:00 7.9 3 Este 6 Nordeste 0 1005.5 0.6 94
2019-11-18 20:00:00 8.8 2 Nordeste 6 Nordeste 0 1005.1 0.6 92
2019-11-18 19:00:00 9.9 0 Calma 6 Sudoeste 0 1005 0.4 88
2019-11-18 18:00:00 11.3 3 Sur 5 Oeste 0 1004.9 0.4 82
2019-11-18 17:00:00 12.2 0 Calma 14 Oeste 0 1004.5 -0.6 78
2019-11-18 16:00:00 12.8 12 Noroeste 19 Oeste 0 1004.6 -1.2 73
2019-11-18 15:00:00 12.8 5 Noroeste 19 Norte 0 1004.5 -1.6 74
2019-11-18 14:00:00 12.9 5 Norte 13 Oeste 0 1005.1 -1.3 67
2019-11-18 13:00:00 12.7 5 Noroeste 10 Oeste 0 1005.8 -0.4 77
2019-11-18 12:00:00 11.2 2 Norte 5 Norte 0 1006.1 0.5 81
2019-11-18 11:00:00 8.1 0 Calma 5 Sudoeste 0 1006.4 1.4 97
2019-11-18 10:00:00 7.4 3 Este 8 Nordeste 0.4 1006.2 1.5 97
2019-11-18 09:00:00 6.2 3 Nordeste 9 Este 0 1005.6 1.2 97
2019-11-18 08:00:00 6.4 4 Nordeste 8 Nordeste 0 1005 1.5 97
2019-11-18 07:00:00 6.6 2 Sur 11 Nordeste 0 1004.7 1.4 97
2019-11-18 06:00:00 6.7 5 Norte 10 Norte 0 1004.4 1.6 99
2019-11-18 05:00:00 6.4 6 Este 11 Este 0 1003.5 0.6 97
2019-11-18 04:00:00 6.6 2 Sudeste 9 Este 0 1003.3 0.9 97
2019-11-18 03:00:00 7.9 6 Nordeste 10 Norte 0 1002.8 0.8 96
2019-11-18 02:00:00 7.7 5 Nordeste 10 Norte 0 1002.9 0.9 96
2019-11-18 01:00:00 8.1 5 Norte 10 Norte 0 1002.4 0.5 95
2019-11-18 00:00:00 8.5 3 Norte 9 Este 0 1002 0.7 94
2019-11-17 23:00:00 9.2 4 Noroeste 7 Norte 0 1002 1.1 91
2019-11-17 22:00:00 9.5 4 Norte 7 Nordeste 0 1001.9 1.1 89
2019-11-17 21:00:00 9.3 4 Sudeste 7 Sudeste 0 1001.3 0.6 92
2019-11-17 20:00:00 9.5 2 Sur 13 Oeste 0 1000.9 0.7 86
2019-11-17 19:00:00 9.9 9 Oeste 15 Oeste 0 1000.8 0.6 80
2019-11-17 18:00:00 10.8 5 Noroeste 22 Oeste 0 1000.7 0.7 78
2019-11-17 17:00:00 12.3 9 Oeste 19 Oeste 0 1000.2 -0.1 69
2019-11-17 16:00:00 11.9 2 Este 27 Oeste 0 1000.2 -0.4 74
2019-11-17 15:00:00 12.3 10 Noroeste 23 Noroeste 0 1000 -1.2 76
2019-11-17 14:00:00 12 9 Noroeste 19 Norte 0.8 1000.3 -0.6 84
2019-11-17 13:00:00 12.5 3 Oeste 11 Oeste 0 1000.6 0.1 86
2019-11-17 12:00:00 11.1 4 Sudoeste 11 Oeste 0 1001.2 1 93
2019-11-17 11:00:00 11 4 Oeste 9 Sudoeste 0 1000.9 1.1 95
2019-11-17 10:00:00 10.6 3 Sudoeste 8 Oeste 0 1000.5 0.9 99
2019-11-17 09:00:00 9.9 3 Sudeste 8 Sur 0.6 1000.2 0.6 99
2019-11-17 08:00:00 9.1 3 Norte 5 Nordeste 1.2 999.8 -0.1 99
2019-11-17 07:00:00 9.1 3 Este 8 Sudeste 0 999.6 -0.6 99
2019-11-17 06:00:00 8.8 0 Calma 5 Nordeste 0 999.6 -0.9 98
2019-11-17 05:00:00 8.8 3 Norte 7 Norte 0 999.9 -1.2 98
2019-11-17 04:00:00 8.6 5 Nordeste 7 Nordeste 0 1000.2 -1.3 98
2019-11-17 03:00:00 8.9 3 Nordeste 8 Norte 0 1000.5 -1.5 96
2019-11-17 02:00:00 9 3 Noroeste 9 Noroeste 0 1001.1 -1.1 93
2019-11-17 01:00:00 9.1 3 Noroeste 12 Sur 0 1001.5 -0.9 93
2019-11-17 00:00:00 9.4 5 Sur 15 Sudeste 0 1002 -0.8 90
2019-11-16 23:00:00 9.5 4 Sur 19 Sudeste 0 1002.2 -0.9 88
2019-11-16 22:00:00 9.5 6 Sudeste 21 Sur 0 1002.4 -0.5 87
2019-11-16 21:00:00 9.7 8 Sur 16 Sudeste 0 1002.8 -0.3 84
2019-11-16 20:00:00 9.7 6 Sur 19 Sur 0 1003.1 -0.2 83
2019-11-16 19:00:00 10 8 Sur 19 Sur 0 1002.9 -0.4 80
2019-11-16 18:00:00 10 8 Sur 16 Sur 0 1003.1 -0.5 82
2019-11-16 17:00:00 10.4 6 Sur 12 Sur 0 1003.3 -0.7 82
2019-11-16 16:00:00 11 6 Sur 12 Sur 0 1003.3 -1 81
2019-11-16 15:00:00 10.4 4 Sudoeste 9 Sudoeste 0 1003.6 -1.2 80
2019-11-16 14:00:00 10.5 3 Sur 9 Sudoeste 0 1004 -0.5 85
2019-11-16 13:00:00 9.5 2 Noroeste 7 Norte 0 1004.3 -0.1 90
2019-11-16 12:00:00 7.4 4 Norte 6 Norte 0 1004.8 0.8 95
2019-11-16 11:00:00 6.3 2 Norte 8 Nordeste 0 1004.5 1 97
2019-11-16 10:00:00 4.8 2 Nordeste 11 Nordeste 0 1004.4 1.4 99
2019-11-16 09:00:00 4 3 Nordeste 9 Nordeste 0 1004 1.4 98
2019-11-16 08:00:00 4.2 9 Nordeste 13 Nordeste 0 1003.5 1.5 99
2019-11-16 07:00:00 3.9 0 Calma 6 Sudoeste 0 1003 0.6 99
2019-11-16 06:00:00 3.6 5 Este 10 Este 0 1002.6 0.6 99
2019-11-16 05:00:00 3.6 8 Este 10 Este 0 1002 0.2 98
2019-11-16 04:00:00 4 7 Nordeste 11 Este 0 1002.4 0.8 97
2019-11-16 03:00:00 4 7 Nordeste 11 Nordeste 0 1002 0.4 97
2019-11-16 02:00:00 3.8 3 Nordeste 12 Este 0 1001.8 0.5 96
2019-11-16 01:00:00 4.7 3 Nordeste 13 Nordeste 0 1001.6 1.3 93
2019-11-16 00:00:00 5.2 5 Nordeste 12 Nordeste 0.2 1001.6 2 93
2019-11-15 23:00:00 5.4 6 Nordeste 14 Nordeste 0 1001.3 1.8 92
2019-11-15 22:00:00 5.4 6 Nordeste 13 Este 0 1000.3 1.8 90
2019-11-15 21:00:00 5.5 8 Nordeste 32 Norte 1 999.6 1.5 92
2019-11-15 20:00:00 5.7 3 Nordeste 8 Nordeste 0 999.5 1.5 95
2019-11-15 19:00:00 5.3 2 Noroeste 7 Este 0 998.5 0.7 93
2019-11-15 18:00:00 6.4 7 Este 11 Nordeste 0.2 998.1 0.8 89
2019-11-15 17:00:00 6.5 7 Nordeste 37 Noroeste 0.2 998 0.9 89
2019-11-15 16:00:00 6.7 18 Noroeste 38 Noroeste 0.8 997.8 0 91
2019-11-15 15:00:00 9.5 12 Noroeste 40 Oeste 0.2 997.3 -1.3 74
2019-11-15 14:00:00 10.4 15 Noroeste 30 Noroeste 0 997.1 -1.3 63
2019-11-15 13:00:00 10.2 9 Noroeste 20 Noroeste 0 997.8 -0.7 69
2019-11-15 12:00:00 8.9 8 Noroeste 17 Noroeste 0 998.6 0.5 72
2019-11-15 11:00:00 8.1 3 Noroeste 13 Noroeste 0 998.4 0.8 76
2019-11-15 10:00:00 6 4 Norte 11 Norte 0 998.5 1.3 84
2019-11-15 09:00:00 4.8 5 Norte 14 Norte 0 998.1 1.3 89
2019-11-15 08:00:00 4.7 4 Noroeste 11 Este 0 997.6 0.9 89
2019-11-15 07:00:00 4.5 4 Norte 15 Norte 0.4 997.2 0.6 92
2019-11-15 06:00:00 4.1 4 Sudeste 9 Este 0 996.8 0.3 92
2019-11-15 05:00:00 4.7 8 Nordeste 11 Nordeste 0 996.7 0.4 90
2019-11-15 04:00:00 5.5 5 Este 14 Este 0 996.6 0.1 85
2019-11-15 03:00:00 5.5 6 Nordeste 20 Noroeste 0 996.5 0.1 82
2019-11-15 02:00:00 6.4 4 Norte 30 Norte 0 996.3 -0.1 74
2019-11-15 01:00:00 6.7 10 Norte 31 Noroeste 0 996.5 0.8 76
2019-11-15 00:00:00 7.1 8 Noroeste 17 Noroeste 0 996.4 0.7 77